Stormwatcher's Retreat Logo




                  Temp     Hi    Low   Out    Dew  Wind  Wind   Wind    Hi    Hi   Wind   Heat    THW   THSW                Rain  Solar   Solar Hi Solar   UV    UV    Hi     Heat    Cool    In     In    In     In     In   In Air          Wind  Wind    ISS   Arc.
  Date    Time     Out   Temp   Temp   Hum    Pt. Speed   Dir    Run Speed   Dir  Chill  Index  Index  Index   Bar    Rain  Rate   Rad.  Energy    Rad.  Index  Dose   UV     D-D     D-D    Temp   Hum    Dew   Heat    EMC Density     ET   Samp   Tx   Recept  Int.
------------------------------------------------------------------------------------------------------------------------------------------------------------------------------------------------------------------------------------------------------------------------
 6/12/21 12:10a   56.4   56.5   56.4    97   55.6  11.0     N   1.83  18.0     N   52.2   56.7   52.5   50.6  29.980  0.00  0.00     0     0.00      0     0.0  0.00   0.0   0.060   0.000   70.6    53   52.6   69.3   9.83  .0740    0.000   204    7    100.0   10 
 6/12/21 12:20a   56.3   56.5   56.3    97   55.5  12.0     N   2.00  17.0     N   51.5   56.6   51.8   50.0  29.979  0.00  0.00     0     0.00      0     0.0  0.00   0.0   0.060   0.000   70.5    53   52.5   69.2   9.83  .0740    0.000   201    7    100.0   10 
 6/12/21 12:30a   56.2   56.3   56.2    97   55.4  10.0     N   1.67  15.0     N   52.5   56.5   52.8   50.9  29.976  0.00  0.00     0     0.00      0     0.0  0.00   0.0   0.061   0.000   70.5    53   52.5   69.2   9.83  .0740    0.000   203    7    100.0   10 
 6/12/21 12:40a   56.2   56.3   56.2    97   55.4   8.0     N   1.33  14.0     N   53.9   56.5   54.2   52.1  29.976  0.00  0.00     0     0.00      0     0.0  0.00   0.0   0.061   0.000   70.5    53   52.5   69.2   9.83  .0740    0.000   200    7    100.0   10 
 6/12/21 12:50a   56.1   56.2   56.1    97   55.3   6.0     N   1.00  13.0   SSW   54.9   56.4   55.2   53.0  29.978  0.00  0.00     0     0.00      0     0.0  0.00   0.0   0.062   0.000   70.5    53   52.5   69.2   9.83  .0740    0.000   201    7    100.0   10 
 6/12/21  1:00a   56.1   56.2   56.1    97   55.3   6.0     N   1.00  11.0     N   54.9   56.4   55.2   53.0  29.977  0.00  0.00     0     0.00      0     0.0  0.00   0.0   0.062   0.000   70.4    53   52.4   69.1   9.83  .0740    0.000   202    7    100.0   10 
 6/12/21  1:10a   56.1   56.1   56.0    97   55.3   8.0     N   1.33  13.0     N   53.8   56.4   54.1   52.0  29.979  0.00  0.00     0     0.00      0     0.0  0.00   0.0   0.062   0.000   70.4    53   52.4   69.1   9.83  .0740    0.000   202    7    100.0   10 
 6/12/21  1:20a   56.2   56.2   56.0    97   55.4  10.0     N   1.67  16.0     N   52.5   56.5   52.8   50.9  29.981  0.00  0.00     0     0.00      0     0.0  0.00   0.0   0.061   0.000   70.4    53   52.4   69.1   9.83  .0740    0.000   203    7    100.0   10 
 6/12/21  1:30a   56.3   56.3   56.1    97   55.5  10.0     N   1.67  15.0     N   52.7   56.6   53.0   51.1  29.985  0.00  0.00     0     0.00      0     0.0  0.00   0.0   0.060   0.000   70.4    53   52.4   69.1   9.83  .0740    0.000   201    7    100.0   10 
 6/12/21  1:40a   56.0   56.3   56.0    97   55.2   8.0     N   1.33  17.0     N   53.7   56.3   54.0   51.9  29.982  0.00  0.00     0     0.00      0     0.0  0.00   0.0   0.063   0.000   70.3    53   52.4   68.9   9.84  .0740    0.000   202    7    100.0   10 
 6/12/21  1:50a   56.0   56.1   55.9    97   55.2   7.0     N   1.17  14.0     N   54.4   56.3   54.7   52.5  29.983  0.00  0.00     0     0.00      0     0.0  0.00   0.0   0.063   0.000   70.3    53   52.4   68.9   9.84  .0740    0.000   203    7    100.0   10 
 6/12/21  2:00a   55.9   56.0   55.9    97   55.1   5.0     S   0.83  13.0     N   55.2   56.2   55.5   53.3  29.980  0.00  0.00     0     0.00      0     0.0  0.00   0.0   0.063   0.000   70.3    53   52.4   68.9   9.84  .0740    0.000   204    7    100.0   10 
 6/12/21  2:10a   55.5   55.9   55.5    97   54.7   3.0     S   0.50   9.0     N   55.5   55.8   55.8   53.5  29.984  0.00  0.00     0     0.00      0     0.0  0.00   0.0   0.066   0.000   70.3    53   52.4   68.9   9.84  .0741    0.000   204    7    100.0   10 
 6/12/21  2:20a   55.7   55.7   55.5    97   54.9   6.0     N   1.00  16.0     N   54.4   56.0   54.7   52.4  29.985  0.00  0.00     0     0.00      0     0.0  0.00   0.0   0.065   0.000   70.2    53   52.3   68.8   9.84  .0741    0.000   203    7    100.0   10 
 6/12/21  2:30a   55.8   55.8   55.7    97   55.0  12.0     N   2.00  18.0     N   51.0   56.1   51.3   49.4  29.988  0.00  0.00     0     0.00      0     0.0  0.00   0.0   0.064   0.000   70.2    53   52.3   68.8   9.84  .0741    0.000   202    7    100.0   10 
 6/12/21  2:40a   55.6   55.8   55.6    97   54.8  12.0     N   2.00  19.0     N   50.7   55.9   51.0   49.1  29.994  0.00  0.00     0     0.00      0     0.0  0.00   0.0   0.065   0.000   70.2    53   52.3   68.8   9.84  .0741    0.000   204    7    100.0   10 
 6/12/21  2:50a   55.5   55.6   55.4    97   54.7  10.0     N   1.67  16.0   SSW   51.7   55.8   52.0   50.0  29.992  0.00  0.00     0     0.00      0     0.0  0.00   0.0   0.066   0.000   70.2    53   52.3   68.8   9.84  .0741    0.000   202    7    100.0   10 
 6/12/21  3:00a   55.5   55.6   55.4    97   54.7  10.0     N   1.67  15.0     N   51.7   55.8   52.0   50.0  29.991  0.00  0.00     0     0.00      0     0.0  0.00   0.0   0.066   0.000   70.1    53   52.2   68.7   9.85  .0741    0.000   203    7    100.0   10 
 6/12/21  3:10a   55.4   55.5   55.4    97   54.6   7.0     N   1.17  14.0     N   53.7   55.7   54.0   51.7  29.990  0.00  0.00     0     0.00      0     0.0  0.00   0.0   0.067   0.000   70.1    53   52.2   68.7   9.85  .0741    0.000   202    7    100.0   10 
 6/12/21  3:20a   55.2   55.4   55.2    97   54.4   4.0     S   0.67   9.0     N   54.8   55.5   55.1   52.8  29.992  0.00  0.00     0     0.00      0     0.0  0.00   0.0   0.068   0.000   70.1    53   52.2   68.7   9.85  .0741    0.000   202    7    100.0   10 
 6/12/21  3:30a   54.8   55.2   54.7    97   54.0   3.0     S   0.50   9.0     N   54.8   55.1   55.1   52.8  29.990  0.00  0.00     0     0.00      0     0.0  0.00   0.0   0.071   0.000   70.0    53   52.1   68.5   9.85  .0741    0.000   203    7    100.0   10 
 6/12/21  3:40a   54.4   54.8   54.4    97   53.6   2.0     S   0.33   5.0     S   54.4   54.7   54.7   52.4  29.989  0.00  0.00     0     0.00      0     0.0  0.00   0.0   0.074   0.000   70.0    53   52.1   68.5   9.85  .0741    0.000   202    7    100.0   10 
 6/12/21  3:50a   53.9   54.4   53.9    97   53.1   2.0     S   0.33   6.0   SSW   53.9   54.2   54.2   51.9  29.992  0.00  0.00     0     0.00      0     0.0  0.00   0.0   0.077   0.000   70.0    53   52.1   68.5   9.85  .0741    0.000   200    7    100.0   10 
 6/12/21  4:00a   53.5   53.9   53.5    97   52.7   1.0   SSE   0.17   4.0   SSE   53.5   53.8   53.8   51.4  29.991  0.00  0.00     0     0.00      0     0.0  0.00   0.0   0.080   0.000   69.9    53   52.0   68.5   9.85  .0741    0.000   203    7    100.0   10 
 6/12/21  4:10a   53.2   53.5   53.2    97   52.4   1.0    SE   0.17   2.0    SE   53.2   53.5   53.5   51.1  29.989  0.00  0.00     0     0.00      0     0.0  0.00   0.0   0.082   0.000   69.9    53   52.0   68.5   9.85  .0741    0.000   203    7    100.0   10 
 6/12/21  4:20a   52.9   53.2   52.9    97   52.1   1.0   SSE   0.17   4.0     S   52.9   53.2   53.2   50.8  29.987  0.00  0.00     0     0.00      0     0.0  0.00   0.0   0.084   0.000   69.8    53   51.9   68.4   9.85  .0741    0.000   198    7    100.0   10 
 6/12/21  4:30a   52.7   52.9   52.7    97   51.9   1.0   SSE   0.17   4.0   SSE   52.7   53.1   53.1   50.7  29.987  0.00  0.00     0     0.00      0     0.0  0.00   0.0   0.085   0.000   69.8    53   51.9   68.4   9.85  .0741    0.000   202    7    100.0   10 
 6/12/21  4:40a   52.5   52.8   52.5    97   51.7   1.0    SE   0.17   4.0     E   52.5   52.9   52.9   50.5  29.985  0.00  0.00     0     0.00      0     0.0  0.00   0.0   0.087   0.000   69.7    53   51.8   68.3   9.86  .0742    0.000   203    7    100.0   10 
 6/12/21  4:50a   52.4   52.6   52.3    97   51.6   1.0   ESE   0.17   4.0   ESE   52.4   52.8   52.8   50.4  29.987  0.00  0.00     0     0.00      0     0.0  0.00   0.0   0.087   0.000   69.7    53   51.8   68.3   9.86  .0742    0.000   202    7    100.0   10 
 6/12/21  5:00a   52.3   52.4   52.3    97   51.5   1.0    SE   0.17   4.0   ESE   52.3   52.7   52.7   50.3  29.984  0.00  0.00     0     0.00      0     0.0  0.00   0.0   0.088   0.000   69.7    53   51.8   68.3   9.86  .0742    0.000   199    7    100.0   10 
 6/12/21  5:10a   52.4   52.4   52.3    97   51.6   2.0   ESE   0.33   6.0   ESE   52.4   52.8   52.8   50.4  29.984  0.00  0.00     0     0.00      0     0.0  0.00   0.0   0.087   0.000   69.6    53   51.7   68.3   9.86  .0742    0.000   201    7    100.0   10 
 6/12/21  5:20a   52.4   52.4   52.3    97   51.6   2.0   ESE   0.33   5.0   SSE   52.4   52.8   52.8   50.4  29.993  0.00  0.00     0     0.00      0     0.0  0.00   0.0   0.087   0.000   69.6    54   52.2   68.3   9.97  .0742    0.000   204    7    100.0   10 
 6/12/21  5:30a   52.2   52.4   52.2    97   51.4   2.0   ESE   0.33   7.0     E   52.2   52.6   52.6   50.2  29.985  0.00  0.00     0     0.00      0     0.0  0.00   0.0   0.089   0.000   69.6    54   52.2   68.3   9.97  .0742    0.000   197    7     99.5   10 
 6/12/21  5:40a   52.2   52.2   52.2    97   51.4   3.0   ESE   0.50   7.0   ESE   52.1   52.6   52.5   50.2  29.990  0.00  0.00     6     0.09      9     0.0  0.00   0.0   0.089   0.000   69.6    53   51.7   68.3   9.86  .0742    0.000   203    7    100.0   10 
 6/12/21  5:50a   52.1   52.2   52.1    97   51.3   3.0   ESE   0.50   7.0     E   52.0   52.5   52.4   50.2  29.989  0.00  0.00    10     0.14     11     0.0  0.00   0.0   0.090   0.000   69.7    53   51.8   68.3   9.86  .0742    0.000   203    7    100.0   10 
 6/12/21  6:00a   52.1   52.1   52.0    97   51.3   3.0   ESE   0.50   7.0     E   52.0   52.5   52.4   50.4  29.990  0.00  0.00    16     0.23     19     0.0  0.00   0.0   0.090   0.000   69.9    53   52.0   68.5   9.85  .0741    0.000   200    7    100.0   10 
 6/12/21  6:10a   52.2   52.2   52.0    97   51.4   2.0   ESE   0.33   5.0    SE   52.2   52.6   52.6   50.7  29.992  0.00  0.00    22     0.32     23     0.0  0.00   0.0   0.089   0.000   70.0    53   52.1   68.5   9.85  .0741    0.000   200    7    100.0   10 
 6/12/21  6:20a   52.3   52.3   52.1    97   51.5   2.0   ESE   0.33   7.0   ESE   52.3   52.7   52.7   51.0  29.996  0.00  0.00    28     0.40     33     0.0  0.00   0.0   0.088   0.000   70.2    53   52.3   68.8   9.84  .0741    0.000   198    7    100.0   10 
 6/12/21  6:30a   52.3   52.3   52.2    97   51.5   0.0   ESE   0.00   2.0   ESE   52.3   52.7   52.7   51.3  29.998  0.00  0.00    41     0.59     42     0.0  0.00   0.0   0.088   0.000   70.4    53   52.4   69.1   9.83  .0741    0.000   196    7     99.0   10 
 6/12/21  6:40a   52.3   52.4   52.3    97   51.5   1.0   ESE   0.17   4.0    SE   52.3   52.7   52.7   51.3  30.005  0.00  0.00    41     0.59     42     0.0  0.00   0.0   0.088   0.000   70.6    53   52.6   69.3   9.83  .0741    0.000   199    7    100.0   10 
 6/12/21  6:50a   52.4   52.4   52.3    97   51.6   0.0   ESE   0.00   2.0   ESE   52.4   52.8   52.8   51.3  30.004  0.00  0.00    39     0.56     40     0.0  0.00   0.0   0.087   0.000   70.7    53   52.7   69.4   9.82  .0740    0.000   198    7    100.0   10 
 6/12/21  7:00a   52.4   52.4   52.3    97   51.6   1.0   ESE   0.17   2.0   ESE   52.4   52.8   52.8   52.8  30.001  0.00  0.00    40     0.57     40     0.0  0.00   0.0   0.087   0.000   70.9    53   52.9   69.7   9.81  .0740    0.001   198    7    100.0   10 
 6/12/21  7:10a   52.4   52.4   52.3    97   51.6   0.0   ESE   0.00   1.0   ESE   52.4   52.8   52.8   52.9  30.005  0.00  0.00    42     0.60     47     0.0  0.00   0.0   0.087   0.000   70.9    53   52.9   69.7   9.81  .0740    0.000   200    7    100.0   10 
 6/12/21  7:20a   52.8   52.8   52.3    97   52.0   1.0   ESE   0.17   2.0   ESE   52.8   53.1   53.1   53.9  30.008  0.00  0.00    59     0.85     70     0.0  0.00   0.0   0.085   0.000   71.0    53   53.0   69.8   9.81  .0740    0.000   202    7    100.0   10 
 6/12/21  7:30a   53.5   53.5   52.8    98   52.9   0.0   ESE   0.00   2.0   ESE   53.5   53.8   53.8   55.4  30.003  0.00  0.00    79     1.13     84     0.0  0.00   0.0   0.080   0.000   71.0    53   53.0   69.8   9.81  .0740    0.000   199    7    100.0   10 
 6/12/21  7:40a   54.1   54.1   53.5    98   53.5   1.0   ESE   0.17   5.0    SE   54.1   54.4   54.4   57.4  29.996  0.00  0.00   115     1.65    128     0.4  0.03   0.5   0.076   0.000   71.1    53   53.1   70.0   9.81  .0739    0.000   201    7    100.0   10 
 6/12/21  7:50a   54.7   54.7   54.1    98   54.1   2.0   ESE   0.33   7.0    SE   54.7   55.0   55.0   59.3  29.992  0.00  0.00   154     2.21    234     0.5  0.04   0.6   0.072   0.000   71.2    53   53.2   70.1   9.80  .0739    0.000   200    7    100.0   10 
 6/12/21  8:00a   55.0   55.0   54.7    97   54.2   4.0   ESE   0.67   9.0     E   54.6   55.3   54.9   62.6  29.986  0.00  0.00   276     3.96    297     0.7  0.05   0.8   0.069   0.000   71.2    53   53.2   70.1   9.80  .0739    0.002   203    7    100.0   10 
 6/12/21  8:10a   55.1   55.3   55.0    97   54.3   5.0     E   0.83  12.0     N   54.2   55.4   54.5   60.2  29.976  0.00  0.00   203     2.91    267     0.7  0.05   0.8   0.069   0.000   71.3    53   53.3   70.3   9.80  .0739    0.000   200    7    100.0   10 
 6/12/21  8:20a   55.3   55.3   54.9    97   54.5   7.0     E   1.17  11.0     N   53.6   55.6   53.9   60.7  29.971  0.00  0.00   254     3.64    367     0.9  0.06   1.1   0.067   0.000   71.3    53   53.3   70.3   9.80  .0738    0.000   202    7    100.0   10 
 6/12/21  8:30a   56.1   56.1   55.3    97   55.3   5.0     E   0.83  10.0     N   55.4   56.4   55.7   63.6  29.970  0.00  0.00   295     4.23    359     1.1  0.08   1.2   0.062   0.000   71.3    53   53.3   70.3   9.80  .0738    0.000   199    7    100.0   10 
 6/12/21  8:40a   56.6   56.6   56.1    97   55.8   4.0   ESE   0.67   8.0     E   56.5   56.9   56.8   66.0  29.970  0.00  0.00   366     5.25    471     1.3  0.09   1.5   0.058   0.000   71.3    53   53.3   70.3   9.80  .0738    0.000   199    7    100.0   10 
 6/12/21  8:50a   56.7   56.7   56.5    97   55.9   4.0    SE   0.67  13.0    SE   56.6   57.0   56.9   65.7  29.973  0.00  0.00   358     5.13    529     1.5  0.11   1.8   0.058   0.000   71.3    53   53.3   70.3   9.80  .0738    0.000   198    7    100.0   10 
 6/12/21  9:00a   56.8   56.9   56.6    96   55.7   4.0     S   0.67  10.0     N   56.8   57.0   57.0   68.4  29.975  0.00  0.00   536     7.68    571     1.9  0.14   2.0   0.057   0.000   71.4    53   53.4   70.4   9.79  .0738    0.007   200    7    100.0   10 
 6/12/21  9:10a   56.9   57.0   56.7    96   55.8   2.0     S   0.33   5.0     N   56.9   57.1   57.1   64.0  29.973  0.00  0.00   291     4.17    394     1.7  0.12   1.8   0.056   0.000   71.4    52   52.9   70.4   9.62  .0739    0.000   204    7    100.0   10 
 6/12/21  9:20a   56.8   57.0   56.7    96   55.7   4.0     S   0.67   6.0   WSW   56.8   57.0   57.0   59.0  29.964  0.00  0.00   122     1.75    167     1.5  0.11   1.6   0.057   0.000   71.4    52   52.9   70.4   9.62  .0738    0.000   201    7    100.0   10 
 6/12/21  9:30a   56.7   56.8   56.7    96   55.6   6.0    SW   1.00   9.0    SW   55.6   56.9   55.8   57.5  29.968  0.00  0.00   117     1.68    128     1.7  0.12   1.7   0.058   0.000   71.5    52   52.9   70.5   9.62  .0738    0.000   199    7    100.0   10 
 6/12/21  9:40a   56.9   56.9   56.7    96   55.8   4.0    SW   0.67   6.0   SSW   56.9   57.1   57.1   57.9  29.962  0.00  0.00    92     1.32    113     1.7  0.12   1.8   0.056   0.000   71.5    52   52.9   70.5   9.62  .0738    0.000   198    7    100.0   10 
 6/12/21  9:50a   57.2   57.2   56.9    96   56.1   5.0    SW   0.83   6.0    SW   56.6   57.5   56.9   58.8  29.964  0.00  0.00   129     1.85    155     1.9  0.14   2.0   0.054   0.000   71.6    52   53.0   70.7   9.62  .0738    0.000   200    7    100.0   10 
 6/12/21 10:00a   57.4   57.4   57.2    96   56.3   5.0    SW   0.83   8.0     N   56.9   57.7   57.2   61.0  29.966  0.00  0.00   204     2.92    232     2.1  0.15   2.1   0.053   0.000   71.6    52   53.0   70.7   9.62  .0738    0.003   203    7    100.0   10 
 6/12/21 10:10a   57.2   57.3   57.1    96   56.1   5.0     N   0.83   7.0   SSE   56.6   57.5   56.9   61.6  29.966  0.00  0.00   245     3.51    306     2.1  0.15   2.3   0.054   0.000   71.7    52   53.1   70.8   9.62  .0738    0.000   200    7    100.0   10 
 6/12/21 10:20a   57.4   57.4   57.2    96   56.3   4.0   SSW   0.67   6.0   SSW   57.4   57.7   57.7   63.5  29.963  0.00  0.00   294     4.21    411     2.5  0.18   2.7   0.053   0.000   71.8    52   53.2   71.0   9.61  .0738    0.000   201    7    100.0   10 
 6/12/21 10:30a   58.0   58.0   57.4    96   56.9   3.0   SSW   0.50   5.0     S   58.0   58.3   58.3   68.6  29.952  0.00  0.00   718    10.29    744     4.1  0.29   4.4   0.049   0.000   71.8    53   53.7   71.0   9.78  .0737    0.000   198    7    100.0   10 
 6/12/21 10:40a   58.6   58.7   58.0    95   57.2   3.0    SW   0.50   5.0    SW   58.6   59.0   59.0   69.6  29.951  0.00  0.00   602     8.63    772     4.0  0.29   4.5   0.044   0.000   71.8    52   53.2   71.0   9.61  .0737    0.000   198    7    100.0   10 
 6/12/21 10:50a   59.1   59.2   58.6    94   57.4   3.0    SW   0.50   4.0    SW   59.1   59.5   59.5   69.1  29.949  0.00  0.00   519     7.44    652     4.3  0.31   4.9   0.041   0.000   71.9    53   53.8   71.2   9.77  .0737    0.000   197    7     99.5   10 
 6/12/21 11:00a   59.3   59.3   59.0    94   57.6   2.0     W   0.33   4.0     W   59.3   59.7   59.7   66.9  29.946  0.00  0.00   383     5.49    431     3.5  0.25   4.2   0.040   0.000   72.0    53   53.9   71.3   9.77  .0737    0.009   203    7    100.0   10 
 6/12/21 11:10a   59.5   59.6   59.1    94   57.8   2.0   WNW   0.33   4.0   WNW   59.5   59.9   59.9   68.8  29.940  0.00  0.00   483     6.92    701     4.1  0.29   4.8   0.038   0.000   72.2    53   54.1   71.6   9.76  .0736    0.000   202    7    100.0   10 
 6/12/21 11:20a   60.2   60.3   59.6    93   58.2   3.0    NW   0.50   4.0    NW   60.2   60.6   60.6   69.8  29.940  0.00  0.00   506     7.25    629     4.2  0.30   4.8   0.033   0.000   72.3    53   54.2   71.8   9.76  .0736    0.000   197    7     99.5   10 
 6/12/21 11:30a   60.0   60.3   60.0    92   57.7   3.0     W   0.50   5.0   WNW   60.0   60.3   60.3   68.1  29.936  0.00  0.00   428     6.14    548     4.1  0.29   4.6   0.035   0.000   72.4    52   53.8   71.8   9.60  .0736    0.000   201    7    100.0   10 
 6/12/21 11:40a   60.2   60.2   60.0    92   57.9   2.0     W   0.33   4.0     W   60.2   60.6   60.6   69.6  29.933  0.00  0.00   507     7.27    807     4.9  0.35   6.4   0.033   0.000   72.5    53   54.4   72.1   9.75  .0735    0.000   203    7    100.0   10 
 6/12/21 11:50a   60.5   60.5   60.1    92   58.2   2.0     W   0.33   5.0   WNW   60.5   60.9   60.9   72.3  29.930  0.00  0.00   765    10.97    937     6.2  0.44   7.2   0.031   0.000   72.5    53   54.4   72.1   9.75  .0735    0.000   202    7    100.0   10 
 6/12/21 12:00p   60.9   60.9   60.5    92   58.6   3.0   WNW   0.50   4.0   WNW   60.9   61.3   61.3   72.1  29.931  0.00  0.00   659     9.45   1000     6.2  0.44   7.6   0.028   0.000   72.4    53   54.3   71.9   9.75  .0736    0.011   202    7    100.0   10 
 6/12/21 12:10p   61.3   61.3   60.9    92   59.0   3.0     W   0.50   4.0     W   61.3   61.8   61.8   73.2  29.929  0.00  0.00   819    11.74    974     6.5  0.46   7.6   0.026   0.000   72.4    53   54.3   71.9   9.75  .0735    0.000   202    7    100.0   10 
 6/12/21 12:20p   62.4   62.4   61.3    91   59.7   3.0     N   0.50   5.0    NW   62.4   63.0   63.0   74.3  29.923  0.00  0.00   844    12.10   1000     7.0  0.50   8.0   0.018   0.000   72.5    53   54.4   72.1   9.75  .0735    0.000   203    7    100.0   10 
 6/12/21 12:30p   63.2   63.3   62.4    89   59.9   3.0    NW   0.50   5.0     N   63.2   63.9   63.9   74.6  29.915  0.00  0.00   952    13.65   1055     7.2  0.51   8.3   0.012   0.000   72.5    53   54.4   72.1   9.75  .0735    0.000   202    7    100.0   10 
 6/12/21 12:40p   63.4   63.4   63.0    90   60.4   3.0     N   0.50   5.0   NNE   63.4   64.1   64.1   74.4  29.917  0.00  0.00   900    12.90    979     7.0  0.50   8.2   0.011   0.000   72.2    55   55.1   71.8  10.11  .0735    0.000   202    7    100.0   10 
 6/12/21 12:50p   64.0   64.0   63.4    89   60.7   3.0    NW   0.50   4.0     N   64.0   64.8   64.8   75.8  29.920  0.00  0.00   986    14.13   1004     7.7  0.55   8.7   0.007   0.000   71.8    55   54.8   71.2  10.11  .0736    0.000   202    7    100.0   10 
 6/12/21  1:00p   64.2   64.2   63.9    88   60.6   3.0   NNW   0.50   4.0   NNE   64.2   65.0   65.0   76.6  29.927  0.00  0.00   774    11.10    962     6.6  0.47   7.8   0.006   0.000   71.5    55   54.5   70.8  10.12  .0737    0.017   204    7    100.0   10 
 6/12/21  1:10p   64.5   64.5   64.2    87   60.5   2.0     N   0.33   5.0     N   64.5   65.3   65.3   77.0  29.923  0.00  0.00   791    11.34    881     7.0  0.50   8.0   0.003   0.000   71.5    56   55.0   70.8  10.32  .0736    0.000   202    7    100.0   10 
 6/12/21  1:20p   64.5   64.6   64.4    86   60.2   3.0     N   0.50   4.0    NE   64.5   65.2   65.2   76.9  29.924  0.00  0.00   795    11.40    874     7.1  0.51   8.2   0.003   0.000   71.3    57   55.3   70.6  10.50  .0737    0.000   198    7    100.0   10 
 6/12/21  1:30p   65.2   65.2   64.4    87   61.2   2.0     N   0.33   4.0     N   65.2   66.1   66.1   76.4  29.925  0.00  0.00   941    13.49   1004     7.9  0.56   8.5   0.000   0.001   71.2    57   55.2   70.5  10.50  .0737    0.000   203    7    100.0   10 
 6/12/21  1:40p   65.7   65.8   65.2    85   61.1   3.0   NNE   0.50   5.0     N   65.7   66.6   66.6   77.6  29.923  0.00  0.00   892    12.79    984     7.6  0.54   8.7   0.000   0.005   71.2    58   55.7   70.6  10.70  .0736    0.000   201    7    100.0   10 
 6/12/21  1:50p   66.2   66.2   65.7    84   61.2   3.0   NNE   0.50   4.0   NNE   66.2   67.2   67.2   78.5  29.920  0.00  0.00  1005    14.41   1116     8.2  0.59   8.9   0.000   0.008   71.2    58   55.7   70.6  10.70  .0736    0.000   202    7    100.0   10 
 6/12/21  2:00p   66.5   66.6   66.2    83   61.2   3.0    NW   0.50   5.0    NW   66.5   67.6   67.6   79.4  29.921  0.00  0.00  1034    14.82   1190     8.2  0.59   9.2   0.000   0.010   71.6    57   55.6   71.1  10.49  .0736    0.020   201    7    100.0   10 
 6/12/21  2:10p   66.9   66.9   66.5    83   61.6   3.0    NW   0.50   5.0    NW   66.9   68.1   68.1   81.8  29.922  0.00  0.00  1164    16.69   1171     7.9  0.56   9.1   0.000   0.013   72.0    57   55.9   71.7  10.47  .0735    0.000   202    7    100.0   10 
 6/12/21  2:20p   66.4   67.0   66.4    82   60.7   3.0   WNW   0.50   4.0   WNW   66.4   67.4   67.4   78.9  29.928  0.00  0.00   738    10.58   1060     6.2  0.44   8.8   0.000   0.010   72.2    57   56.1   72.0  10.46  .0735    0.000   203    7    100.0   10 
 6/12/21  2:30p   66.1   66.4   66.1    82   60.4   2.0    SW   0.33   3.0   WSW   66.1   67.1   67.1   77.1  29.919  0.00  0.00   575     8.24    668     5.4  0.39   5.9   0.000   0.008   72.5    57   56.4   72.4  10.45  .0734    0.000   202    7    100.0   10 
 6/12/21  2:40p   65.8   66.1   65.8    83   60.5   1.0    SW   0.17   3.0    SW   65.8   66.7   66.7   76.2  29.917  0.00  0.00   538     7.71    680     5.0  0.36   6.0   0.000   0.006   72.8    57   56.7   72.9  10.44  .0734    0.000   199    7    100.0   10 
 6/12/21  2:50p   65.4   65.8   65.4    82   59.8   1.0    SW   0.17   2.0    SW   65.4   66.2   66.2   74.0  29.916  0.00  0.00   428     6.14    510     4.2  0.30   4.6   0.000   0.003   73.0    57   56.9   73.2  10.43  .0733    0.000   205    7    100.0   10 
 6/12/21  3:00p   64.9   65.4   64.9    82   59.3   2.0    SW   0.33   3.0    SW   64.9   65.6   65.6   71.5  29.916  0.00  0.00   321     4.60    367     3.1  0.22   3.7   0.001   0.000   73.2    57   57.1   73.4  10.42  .0733    0.013   202    7    100.0   10 
 6/12/21  3:10p   64.4   64.9   64.4    83   59.1   2.0    SW   0.33   3.0    SW   64.4   65.0   65.0   69.8  29.911  0.00  0.00   274     3.93    309     2.6  0.19   2.9   0.004   0.000   73.3    57   57.1   73.5  10.42  .0733    0.000   197    7     99.5   10 
 6/12/21  3:20p   64.2   64.5   64.1    83   58.9   2.0    SW   0.33   4.0   SSW   64.2   64.8   64.8   69.2  29.911  0.00  0.00   252     3.61    269     2.4  0.17   2.5   0.006   0.000   73.3    57   57.1   73.5  10.42  .0733    0.000   202    7    100.0   10 
 6/12/21  3:30p   63.6   64.2   63.6    84   58.7   4.0     S   0.67   6.0    SW   63.6   64.1   64.1   69.3  29.906  0.00  0.00   285     4.09    315     2.6  0.19   2.8   0.010   0.000   73.1    57   57.0   73.3  10.43  .0733    0.000   204    7    100.0   10 
 6/12/21  3:40p   63.0   63.6   63.0    85   58.4   4.0     S   0.67   5.0     S   63.0   63.5   63.5   65.9  29.908  0.00  0.00   164     2.35    234     1.6  0.11   2.3   0.014   0.000   73.0    57   56.9   73.2  10.43  .0733    0.000   197    7     99.5   10 
 6/12/21  3:50p   62.4   63.1   62.3    86   58.2   3.0     S   0.50   6.0   SSW   62.4   62.8   62.8   64.2  29.902  0.00  0.00   124     1.78    165     1.2  0.09   1.6   0.018   0.000   72.9    57   56.8   73.0  10.43  .0733    0.000   201    7    100.0   10 
 6/12/21  4:00p   62.3   62.3   62.2    86   58.1   1.0     S   0.17   4.0     S   62.3   62.7   62.7   63.9  29.897  0.00  0.00   113     1.62    142     1.1  0.08   1.4   0.019   0.000   73.1    57   57.0   73.3  10.43  .0733    0.005   200    7    100.0   10 
 6/12/21  4:10p   62.3   62.3   62.2    87   58.4   0.0     S   0.00   2.0     S   62.3   62.7   62.7   65.5  29.887  0.00  0.00   172     2.47    190     1.6  0.11   1.7   0.019   0.000   73.3    57   57.1   73.5  10.42  .0732    0.000   203    7    100.0   10 
 6/12/21  4:20p   62.3   62.4   62.3    87   58.4   0.0     S   0.00   2.0     S   62.3   62.7   62.7   64.4  29.887  0.00  0.00   129     1.85    156     1.2  0.09   1.4   0.019   0.000   73.6    56   56.9   73.8  10.28  .0732    0.000   197    7     99.5   10 
 6/12/21  4:30p   62.2   62.4   62.1    88   58.6   2.0    SW   0.33   4.0     S   62.2   62.7   62.7   63.8  29.881  0.00  0.00   105     1.51    118     0.9  0.06   1.1   0.019   0.000   73.7    56   57.0   73.9  10.28  .0731    0.000   200    7    100.0   10 
 6/12/21  4:40p   62.0   62.2   62.0    88   58.4   2.0    SW   0.33   4.0   WSW   62.0   62.4   62.4   63.2  29.876  0.00  0.00    91     1.30     98     0.8  0.06   0.9   0.021   0.000   73.8    56   57.1   74.1  10.27  .0731    0.000   196    7     99.0   10 
 6/12/21  4:50p   61.7   62.0   61.6    88   58.1   1.0   WSW   0.17   3.0   WSW   61.7   62.1   62.1   62.5  29.873  0.01  0.00    75     1.08     77     0.7  0.05   0.7   0.023   0.000   73.9    56   57.2   74.2  10.27  .0731    0.000   199    7    100.0   10 
 6/12/21  5:00p   61.4   61.6   61.4    89   58.1   0.0   ---   0.00   0.0   ---   61.4   61.8   61.8   61.9  29.878  0.01  0.05    66     0.95     72     0.6  0.04   0.6   0.025   0.000   74.0    56   57.3   74.3  10.27  .0731    0.002   194    7     98.0   10 
 6/12/21  5:10p   61.2   61.4   61.2    89   57.9   0.0   ---   0.00   0.0   ---   61.2   61.6   61.6   61.9  29.876  0.02  0.10    70     1.00     77     0.6  0.04   0.6   0.026   0.000   74.1    56   57.4   74.4  10.27  .0731    0.000   203    7    100.0   10 
 6/12/21  5:20p   61.0   61.2   61.0    89   57.7   1.0   SSW   0.17   4.0   SSW   61.0   61.4   61.4   61.3  29.882  0.01  0.10    56     0.80     79     0.3  0.02   0.6   0.028   0.000   74.1    56   57.4   74.4  10.27  .0731    0.000   198    7    100.0   10 
 6/12/21  5:30p   60.5   61.0   60.5    90   57.6   3.0     S   0.50   5.0   WSW   60.5   60.8   60.8   60.5  29.877  0.02  0.13    48     0.69     69     0.2  0.01   0.5   0.031   0.000   74.2    55   57.0   74.5  10.07  .0731    0.000   199    7    100.0   10 
 6/12/21  5:40p   60.3   60.6   60.3    91   57.7   3.0     S   0.50   6.0     S   60.3   60.6   60.6   59.9  29.878  0.02  0.16    34     0.49     47     0.0  0.00   0.0   0.033   0.000   74.2    55   57.0   74.5  10.07  .0731    0.000   198    7    100.0   10 
 6/12/21  5:50p   60.1   60.3   60.1    91   57.5   3.0     S   0.50   6.0     S   60.1   60.4   60.4   59.8  29.869  0.02  0.17    37     0.53     46     0.0  0.00   0.0   0.034   0.000   74.2    55   57.0   74.5  10.07  .0730    0.000   200    7    100.0   10 
 6/12/21  6:00p   61.6   61.6   60.2    93   59.6   7.0     S   1.17  15.0     S   61.2   62.2   61.8   61.9  29.862  0.03  0.21    51     0.73     62     0.0  0.00   0.0   0.024   0.000   74.3    55   57.1   74.6  10.06  .0730    0.001   202    7    100.0   10 
 6/12/21  6:10p   62.1   62.1   61.6    93   60.1   8.0     N   1.33  17.0     N   61.0   62.7   61.6   61.6  29.855  0.02  0.17    47     0.67     60     0.0  0.00   0.0   0.020   0.000   74.3    55   57.1   74.6  10.06  .0730    0.000   202    7    100.0   10 
 6/12/21  6:20p   62.4   62.4   62.1    93   60.3   9.0     N   1.50  19.0     N   60.5   63.1   61.2   60.9  29.848  0.02  0.12    38     0.54     40     0.0  0.00   0.0   0.018   0.000   74.4    55   57.2   74.7  10.06  .0730    0.000   200    7    100.0   10 
 6/12/21  6:30p   62.7   62.7   62.4    93   60.6   8.0     N   1.33  16.0     N   61.7   63.4   62.4   62.3  29.845  0.01  0.12    40     0.57     42     0.0  0.00   0.0   0.016   0.000   74.4    55   57.2   74.7  10.06  .0729    0.000   198    7    100.0   10 
 6/12/21  6:40p   62.8   62.8   62.6    93   60.7   8.0     N   1.33  15.0     N   61.9   63.5   62.6   62.6  29.841  0.01  0.12    42     0.60     46     0.0  0.00   0.0   0.015   0.000   74.4    55   57.2   74.7  10.06  .0729    0.000   201    7    100.0   10 
 6/12/21  6:50p   62.9   62.9   62.8    93   60.8   6.0     S   1.00  13.0   SSE   62.9   63.6   63.6   63.2  29.832  0.02  0.12    31     0.44     39     0.0  0.00   0.0   0.015   0.000   74.4    55   57.2   74.7  10.06  .0729    0.000   201    7    100.0   10 
 6/12/21  7:00p   63.0   63.0   62.9    93   60.9   4.0   SSE   0.67  11.0   SSE   63.0   63.8   63.8   63.6  29.823  0.01  0.12    33     0.47     37     0.0  0.00   0.0   0.014   0.000   74.4    55   57.2   74.7  10.06  .0729    0.001   202    7    100.0   10 
 6/12/21  7:10p   63.1   63.1   62.9    94   61.3   4.0     S   0.67  14.0     N   63.1   63.9   63.9   63.8  29.826  0.01  0.08    33     0.47     35     0.0  0.00   0.0   0.013   0.000   74.4    55   57.2   74.7  10.06  .0729    0.000   202    7    100.0   10 
 6/12/21  7:20p   63.1   63.1   63.0    94   61.3   6.0     S   1.00  14.0     N   63.1   63.9   63.9   63.4  29.826  0.00  0.05    24     0.34     30     0.0  0.00   0.0   0.013   0.000   74.4    55   57.2   74.7  10.06  .0729    0.000   204    7    100.0   10 
 6/12/21  7:30p   63.4   63.4   63.1    94   61.6   7.0     N   1.17  23.0     N   63.3   64.3   64.2   63.5  29.824  0.00  0.00    19     0.27     19     0.0  0.00   0.0   0.011   0.000   74.4    55   57.2   74.7  10.06  .0729    0.000   201    7    100.0   10 
 6/12/21  7:40p   63.7   63.8   63.4    93   61.6   8.0     N   1.33  23.0     N   62.9   64.6   63.8   62.9  29.820  0.01  0.00    15     0.22     16     0.0  0.00   0.0   0.009   0.000   74.3    55   57.1   74.6  10.06  .0729    0.000   202    7    100.0   10 
 6/12/21  7:50p   63.9   63.9   63.7    93   61.8   7.0     S   1.17  15.0     N   63.9   64.8   64.8   63.1  29.808  0.01  0.04    14     0.20     14     0.0  0.00   0.0   0.008   0.000   74.2    55   57.0   74.5  10.07  .0729    0.000   202    7    100.0   10 
 6/12/21  8:00p   64.1   64.1   63.8    93   62.0  11.0     N   1.83  23.0     N   61.0   65.0   61.9   60.5  29.813  0.00  0.04    12     0.17     12     0.0  0.00   0.0   0.006   0.000   74.2    55   57.0   74.5  10.07  .0729    0.001   205    7    100.0   10 
 6/12/21  8:10p   64.3   64.4   64.1    93   62.2  10.0     N   1.67  20.0     N   62.0   65.3   63.0   61.5  29.812  0.01  0.04    11     0.16     12     0.0  0.00   0.0   0.005   0.000   74.2    55   57.0   74.5  10.07  .0729    0.000   203    7    100.0   10 
 6/12/21  8:20p   64.4   64.4   64.3    93   62.3  10.0     N   1.67  18.0     N   62.1   65.4   63.1   61.5  29.818  0.00  0.00     8     0.11     11     0.0  0.00   0.0   0.004   0.000   74.2    55   57.0   74.5  10.07  .0729    0.000   203    7    100.0   10 
 6/12/21  8:30p   64.4   64.4   64.3    92   62.0  10.0     N   1.67  24.0     N   62.1   65.4   63.1   61.5  29.823  0.00  0.00     5     0.07      7     0.0  0.00   0.0   0.004   0.000   74.2    55   57.0   74.5  10.07  .0729    0.000   203    7    100.0   10 
 6/12/21  8:40p   64.2   64.4   64.2    92   61.8  15.0     N   2.50  34.0     N   59.3   65.1   60.2   58.8  29.824  0.01  0.00     4     0.06      5     0.0  0.00   0.0   0.006   0.000   74.2    55   57.0   74.5  10.07  .0729    0.000   204    7    100.0   10 
 6/12/21  8:50p   64.1   64.3   64.1    93   62.0  12.0     N   2.00  21.0     N   60.4   65.0   61.3   59.7  29.828  0.00  0.00     0     0.00      0     0.0  0.00   0.0   0.006   0.000   74.2    55   57.0   74.5  10.07  .0729    0.000   201    7    100.0   10 
 6/12/21  9:00p   63.7   64.1   63.7    93   61.6  11.0     N   1.83  18.0     N   60.6   64.6   61.5   59.8  29.828  0.01  0.00     0     0.00      0     0.0  0.00   0.0   0.009   0.000   74.2    55   57.0   74.5  10.07  .0729    0.001   200    7    100.0   10 
 6/12/21  9:10p   63.5   63.7   63.5    94   61.7  10.0     N   1.67  23.0     N   61.1   64.4   62.0   60.2  29.827  0.01  0.08     0     0.00      0     0.0  0.00   0.0   0.010   0.000   74.1    55   56.9   74.3  10.07  .0730    0.000   204    7    100.0   10 
 6/12/21  9:20p   63.3   63.6   63.2    94   61.5   8.0     N   1.33  15.0     N   62.4   64.1   63.2   61.3  29.830  0.01  0.08     0     0.00      0     0.0  0.00   0.0   0.012   0.000   74.1    56   57.4   74.4  10.27  .0729    0.000   203    7    100.0   10 
 6/12/21  9:30p   63.2   63.4   63.2    94   61.4   8.0     N   1.33  14.0     N   62.3   64.0   63.1   61.2  29.832  0.01  0.11     0     0.00      0     0.0  0.00   0.0   0.012   0.000   74.0    56   57.3   74.3  10.27  .0730    0.000   201    7    100.0   10 
 6/12/21  9:40p   63.0   63.3   63.0    94   61.2   7.0     N   1.17  13.0     N   62.9   63.8   63.7   61.7  29.833  0.02  0.11     0     0.00      0     0.0  0.00   0.0   0.014   0.000   74.0    56   57.3   74.3  10.27  .0730    0.000   202    7    100.0   10 
 6/12/21  9:50p   61.5   63.0   61.5    93   59.5   9.0     N   1.50  13.0     N   59.5   62.0   60.0   58.1  29.837  0.01  0.11     0     0.00      0     0.0  0.00   0.0   0.024   0.000   74.0    56   57.3   74.3  10.27  .0730    0.000   202    7    100.0   10 
 6/12/21 10:00p   60.9   61.5   60.9    94   59.2   7.0     N   1.17  12.0     N   60.3   61.4   60.8   58.7  29.835  0.00  0.06     0     0.00      0     0.0  0.00   0.0   0.028   0.000   74.0    56   57.3   74.3  10.27  .0730    0.001   203    7    100.0   10 
 6/12/21 10:10p   61.0   61.2   60.9    95   59.6   7.0     N   1.17  14.0     N   60.4   61.5   60.9   58.8  29.838  0.01  0.06     0     0.00      0     0.0  0.00   0.0   0.028   0.000   74.0    56   57.3   74.3  10.27  .0730    0.000   204    7    100.0   10 
 6/12/21 10:20p   61.2   61.6   61.0    95   59.8   8.0     N   1.33  16.0     N   59.9   61.7   60.4   58.4  29.845  0.00  0.00     0     0.00      0     0.0  0.00   0.0   0.026   0.000   73.9    56   57.2   74.2  10.27  .0730    0.000   201    7    100.0   10 
 6/12/21 10:30p   60.8   61.2   60.7    95   59.4  16.0     N   2.67  25.0     N   55.2   61.3   55.7   54.2  29.855  0.08  0.99     0     0.00      0     0.0  0.00   0.0   0.029   0.000   73.9    56   57.2   74.2  10.27  .0730    0.000   203    7    100.0   10 
 6/12/21 10:40p   61.1   61.1   60.7    96   60.0  14.0     N   2.33  21.0     N   56.1   61.7   56.7   55.1  29.855  0.01  0.65     0     0.00      0     0.0  0.00   0.0   0.027   0.000   73.9    56   57.2   74.2  10.27  .0730    0.000   200    7    100.0   10 
 6/12/21 10:50p   61.4   61.5   61.1    96   60.2  17.0     N   2.83  26.0     N   55.5   62.0   56.1   54.7  29.856  0.02  0.11     0     0.00      0     0.0  0.00   0.0   0.025   0.000   73.8    56   57.1   74.1  10.27  .0731    0.000   203    7    100.0   10 
 6/12/21 11:00p   61.4   61.5   61.4    96   60.2  19.0     N   3.17  30.0     N   55.0   62.0   55.6   54.3  29.856  0.01  0.21     0     0.00      0     0.0  0.00   0.0   0.025   0.000   73.8    56   57.1   74.1  10.27  .0731    0.000   203    7    100.0   10 
 6/12/21 11:10p   61.1   61.4   61.1    96   60.0  18.0     N   3.00  31.0     N   54.9   61.7   55.5   54.1  29.857  0.02  0.14     0     0.00      0     0.0  0.00   0.0   0.027   0.000   73.8    55   56.6   74.0  10.07  .0731    0.000   202    7    100.0   10 
 6/12/21 11:20p   61.2   61.2   61.1    96   60.1  18.0     N   3.00  30.0     N   55.0   61.8   55.6   54.2  29.859  0.02  0.12     0     0.00      0     0.0  0.00   0.0   0.026   0.000   73.8    56   57.1   74.1  10.27  .0731    0.000   202    7    100.0   10 
 6/12/21 11:30p   61.0   61.2   61.0    96   59.9  18.0     N   3.00  27.0     N   54.8   61.5   55.3   53.9  29.853  0.04  0.37     0     0.00      0     0.0  0.00   0.0   0.028   0.000   73.7    55   56.5   73.8  10.08  .0731    0.000   204    7    100.0   10 
 6/12/21 11:40p   60.9   61.0   60.9    96   59.8  18.0     N   3.00  29.0     N   54.7   61.4   55.2   53.8  29.858  0.02  0.18     0     0.00      0     0.0  0.00   0.0   0.028   0.000   73.7    55   56.5   73.8  10.08  .0731    0.000   203    7    100.0   10 
 6/12/21 11:50p   60.9   60.9   60.8    96   59.8  19.0     N   3.17  30.0     N   54.5   61.4   55.0   53.6  29.861  0.01  0.15     0     0.00      0     0.0  0.00   0.0   0.028   0.000   73.7    55   56.5   73.8  10.08  .0731    0.000   204    7    100.0   10 
 6/13/21 12:00a   60.8   60.9   60.8    96   59.7  19.0     N   3.17  36.0     N   54.4   61.3   54.9   53.5  29.862  0.01  0.10     0     0.00      0     0.0  0.00   0.0   0.029   0.000   73.7    55   56.5   73.8  10.08  .0731    0.001   203    7    100.0   10 
 6/13/21 12:10a   60.7   60.8   60.7    96   59.6  19.0     N   3.17  28.0     N   54.2   61.2   54.7   53.3  29.862  0.01  0.07     0     0.00      0     0.0  0.00   0.0   0.030   0.000   73.7    55   56.5   73.8  10.08  .0731    0.000   203    7    100.0   10 
 6/13/21 12:20a   60.7   60.8   60.7    96   59.6  18.0     N   3.00  29.0     N   54.5   61.2   55.0   53.6  29.866  0.02  0.11     0     0.00      0     0.0  0.00   0.0   0.030   0.000   73.6    55   56.4   73.7  10.08  .0731    0.000   203    7    100.0   10 
 6/13/21 12:30a   60.6   60.7   60.6    96   59.5  18.0     N   3.00  25.0     N   54.4   61.1   54.9   53.5  29.866  0.01  0.14     0     0.00      0     0.0  0.00   0.0   0.031   0.000   73.6    55   56.4   73.7  10.08  .0731    0.000   201    7    100.0   10 
 6/13/21 12:40a   60.7   60.7   60.5    97   59.8  17.0     N   2.83  28.0     N   54.7   61.3   55.3   53.8  29.864  0.00  0.04     0     0.00      0     0.0  0.00   0.0   0.030   0.000   73.5    55   56.3   73.6  10.08  .0732    0.000   202    7    100.0   10 
 6/13/21 12:50a   60.8   60.9   60.6    97   59.9  16.0     N   2.67  27.0   SSE   55.2   61.4   55.8   54.3  29.863  0.01  0.04     0     0.00      0     0.0  0.00   0.0   0.029   0.000   73.5    55   56.3   73.6  10.08  .0732    0.000   203    7    100.0   10 
 6/13/21  1:00a   61.0   61.0   60.8    97   60.1  16.0     N   2.67  28.0     N   55.4   61.6   56.0   54.6  29.861  0.01  0.06     0     0.00      0     0.0  0.00   0.0   0.028   0.000   73.5    55   56.3   73.6  10.08  .0731    0.000   204    7    100.0   10 
 6/13/21  1:10a   61.2   61.2   61.0    97   60.3  15.0     N   2.50  23.0     N   55.9   61.8   56.5   55.0  29.860  0.01  0.06     0     0.00      0     0.0  0.00   0.0   0.026   0.000   73.4    55   56.2   73.5  10.08  .0732    0.000   202    7    100.0   10 
 6/13/21  1:20a   61.0   61.2   61.0    96   59.9  15.0     N   2.50  24.0     N   55.7   61.5   56.2   54.6  29.862  0.01  0.06     0     0.00      0     0.0  0.00   0.0   0.028   0.000   73.4    55   56.2   73.5  10.08  .0732    0.000   203    7    100.0   10 
 6/13/21  1:30a   60.6   61.1   60.6    97   59.7  14.0     N   2.33  22.0     N   55.6   61.1   56.1   54.5  29.859  0.01  0.05     0     0.00      0     0.0  0.00   0.0   0.031   0.000   73.4    55   56.2   73.5  10.08  .0732    0.000   200    7    100.0   10 
 6/13/21  1:40a   59.8   60.6   59.8    96   58.7  11.0     N   1.83  17.0     N   56.1   60.2   56.5   54.7  29.859  0.01  0.14     0     0.00      0     0.0  0.00   0.0   0.036   0.000   73.4    55   56.2   73.5  10.08  .0732    0.000   202    7    100.0   10 
 6/13/21  1:50a   59.6   59.9   59.6    97   58.7   9.0     N   1.50  14.0     N   57.2   60.1   57.7   55.8  29.851  0.01  0.07     0     0.00      0     0.0  0.00   0.0   0.038   0.000   73.4    55   56.2   73.5  10.08  .0731    0.000   202    7    100.0   10 
 6/13/21  2:00a   59.3   59.8   59.3    97   58.4   9.0     N   1.50  16.0     N   56.9   59.8   57.4   55.5  29.849  0.01  0.06     0     0.00      0     0.0  0.00   0.0   0.040   0.000   73.3    55   56.2   73.4  10.08  .0732    0.000   201    7    100.0   10 
 6/13/21  2:10a   59.2   59.6   59.2    97   58.3   9.0     N   1.50  14.0     N   56.7   59.6   57.1   55.2  29.852  0.00  0.04     0     0.00      0     0.0  0.00   0.0   0.040   0.000   73.3    55   56.2   73.4  10.08  .0732    0.000   204    7    100.0   10 
 6/13/21  2:20a   58.9   59.2   58.9    97   58.1   7.0     N   1.17  11.0     N   57.9   59.3   58.3   56.2  29.856  0.02  0.09     0     0.00      0     0.0  0.00   0.0   0.042   0.000   73.3    55   56.2   73.4  10.08  .0732    0.000   202    7    100.0   10 
 6/13/21  2:30a   59.3   59.3   58.9    97   58.4   6.0   SSW   1.00  13.0   SSE   58.8   59.8   59.3   57.2  29.855  0.00  0.05     0     0.00      0     0.0  0.00   0.0   0.040   0.000   73.2    55   56.1   73.2  10.09  .0732    0.000   199    7    100.0   10 
 6/13/21  2:40a   59.6   59.6   59.2    98   59.0   5.0     S   0.83  10.0     N   59.5   60.1   60.0   57.9  29.857  0.01  0.05     0     0.00      0     0.0  0.00   0.0   0.038   0.000   73.2    55   56.1   73.2  10.09  .0732    0.000   203    7    100.0   10 
 6/13/21  2:50a   59.6   59.8   59.6    97   58.7   9.0     N   1.50  14.0     N   57.2   60.1   57.7   55.8  29.856  0.00  0.00     0     0.00      0     0.0  0.00   0.0   0.038   0.000   73.2    55   56.1   73.2  10.09  .0732    0.000   204    7    100.0   10 
 6/13/21  3:00a   59.4   59.7   59.4    97   58.5   8.0     N   1.33  12.0     N   57.8   59.9   58.3   56.3  29.857  0.01  0.00     0     0.00      0     0.0  0.00   0.0   0.039   0.000   73.2    55   56.1   73.2  10.09  .0732    0.000   203    7    100.0   10 
 6/13/21  3:10a   59.2   59.4   59.1    97   58.3   8.0     N   1.33  12.0     N   57.5   59.6   57.9   55.9  29.855  0.00  0.00     0     0.00      0     0.0  0.00   0.0   0.040   0.000   73.1    55   56.0   73.1  10.09  .0732    0.000   203    7    100.0   10 
 6/13/21  3:20a   59.1   59.2   59.1    98   58.5   8.0     N   1.33  13.0    SW   57.4   59.6   57.9   55.9  29.857  0.02  0.13     0     0.00      0     0.0  0.00   0.0   0.041   0.000   73.1    55   56.0   73.1  10.09  .0732    0.000   202    7    100.0   10 
 6/13/21  3:30a   59.0   59.1   58.9    98   58.4   6.0     N   1.00  11.0     N   58.4   59.5   58.9   56.8  29.857  0.02  0.25     0     0.00      0     0.0  0.00   0.0   0.042   0.000   73.1    55   56.0   73.1  10.09  .0732    0.000   203    7    100.0   10 
 6/13/21  3:40a   59.0   59.1   58.9    98   58.4   4.0     S   0.67  10.0     N   59.0   59.5   59.5   57.4  29.853  0.01  0.25     0     0.00      0     0.0  0.00   0.0   0.042   0.000   73.0    55   55.9   73.0  10.09  .0732    0.000   202    7    100.0   10 
 6/13/21  3:50a   59.5   59.5   58.9    98   58.9   9.0     N   1.50  16.0     N   57.1   60.0   57.6   55.7  29.850  0.01  0.11     0     0.00      0     0.0  0.00   0.0   0.038   0.000   73.0    55   55.9   73.0  10.09  .0732    0.000   199    7    100.0   10 
 6/13/21  4:00a   59.8   59.8   59.5    98   59.2   9.0     N   1.50  15.0     N   57.5   60.3   58.0   56.1  29.853  0.00  0.00     0     0.00      0     0.0  0.00   0.0   0.036   0.000   73.0    55   55.9   73.0  10.09  .0732    0.000   200    7    100.0   10 
 6/13/21  4:10a   59.4   59.8   59.4    98   58.8   8.0     N   1.33  14.0     N   57.8   59.9   58.3   56.3  29.851  0.01  0.00     0     0.00      0     0.0  0.00   0.0   0.039   0.000   72.9    55   55.8   72.9  10.09  .0732    0.000   204    7    100.0   10 
 6/13/21  4:20a   59.9   59.9   59.5    98   59.3   7.0     N   1.17  13.0     N   59.1   60.4   59.6   57.5  29.852  0.01  0.08     0     0.00      0     0.0  0.00   0.0   0.035   0.000   72.9    55   55.8   72.9  10.09  .0732    0.000   201    7    100.0   10 
 6/13/21  4:30a   59.3   59.9   59.3    97   58.4  10.0     N   1.67  15.0     N   56.2   59.8   56.7   54.9  29.857  0.00  0.04     0     0.00      0     0.0  0.00   0.0   0.040   0.000   72.9    55   55.8   72.9  10.09  .0732    0.000   204    7    100.0   10 
 6/13/21  4:40a   59.9   59.9   59.3    98   59.3  11.0     N   1.83  18.0     N   56.2   60.4   56.7   54.9  29.857  0.01  0.04     0     0.00      0     0.0  0.00   0.0   0.035   0.000   72.9    55   55.8   72.9  10.09  .0732    0.000   200    7    100.0   10 
 6/13/21  4:50a   59.8   59.9   59.7    98   59.2  11.0     N   1.83  17.0     N   56.1   60.3   56.6   54.8  29.853  0.01  0.15     0     0.00      0     0.0  0.00   0.0   0.036   0.000   72.8    55   55.7   72.7  10.09  .0732    0.000   201    7    100.0   10 
 6/13/21  5:00a   59.7   60.0   59.7    98   59.1  10.0     N   1.67  17.0     N   56.6   60.2   57.1   55.3  29.852  0.01  0.09     0     0.00      0     0.0  0.00   0.0   0.037   0.000   72.8    55   55.7   72.7  10.09  .0732    0.000   197    7     99.5   10 
 6/13/21  5:10a   59.7   59.9   59.7    98   59.1  10.0     N   1.67  16.0     N   56.6   60.2   57.1   55.3  29.851  0.00  0.00     0     0.00      0     0.0  0.00   0.0   0.037   0.000   72.8    55   55.7   72.7  10.09  .0732    0.000   203    7    100.0   10 
 6/13/21  5:20a   59.5   59.8   59.5    98   58.9  11.0     N   1.83  16.0     N   55.8   60.0   56.3   54.5  29.852  0.01  0.00     0     0.00      0     0.0  0.00   0.0   0.038   0.000   72.8    55   55.7   72.7  10.09  .0732    0.000   202    7    100.0   10 
 6/13/21  5:30a   60.0   60.0   59.5    98   59.4  12.0     N   2.00  18.0     N   55.8   60.5   56.3   54.6  29.854  0.00  0.00     0     0.00      0     0.0  0.00   0.0   0.035   0.000   72.8    55   55.7   72.7  10.09  .0733    0.000   201    7    100.0   10 
 6/13/21  5:40a   60.2   60.2   60.1    98   59.6  11.0     N   1.83  18.0     N   56.5   60.7   57.0   55.2  29.851  0.01  0.00     0     0.00      0     0.0  0.00   0.0   0.033   0.000   72.7    55   55.6   72.5  10.10  .0733    0.000   203    7    100.0   10 
 6/13/21  5:50a   60.0   60.3   60.0    98   59.4  11.0     N   1.83  18.0     N   56.3   60.5   56.8   55.0  29.854  0.00  0.00     1     0.01      5     0.0  0.00   0.0   0.035   0.000   72.7    55   55.6   72.5  10.10  .0733    0.000   202    7    100.0   10 
 6/13/21  6:00a   59.5   60.0   59.5    98   58.9   9.0     N   1.50  15.0     N   57.1   60.0   57.6   55.7  29.856  0.01  0.04     2     0.03      5     0.0  0.00   0.0   0.038   0.000   72.7    55   55.6   72.5  10.10  .0733    0.000   204    7    100.0   10 
 6/13/21  6:10a   59.3   59.5   59.2    98   58.7  10.0     N   1.67  15.0     N   56.2   59.8   56.7   54.9  29.859  0.01  0.05     4     0.06      5     0.0  0.00   0.0   0.040   0.000   72.7    55   55.6   72.5  10.10  .0733    0.000   203    7    100.0   10 
 6/13/21  6:20a   59.1   59.4   58.8    98   58.5   9.0     N   1.50  14.0     N   56.6   59.6   57.1   55.3  29.864  0.01  0.09     5     0.07      7     0.0  0.00   0.0   0.041   0.000   72.8    55   55.7   72.7  10.09  .0733    0.000   202    7    100.0   10 
 6/13/21  6:30a   59.6   59.6   59.1    98   59.0  10.0     N   1.67  20.0   SSW   56.5   60.1   57.0   55.4  29.864  0.02  0.12    10     0.14     14     0.0  0.00   0.0   0.038   0.000   72.8    55   55.7   72.7  10.09  .0733    0.000   204    7    100.0   10 
 6/13/21  6:40a   59.5   59.6   59.5    98   58.9  10.0     N   1.67  17.0     N   56.4   60.0   56.9   55.3  29.868  0.02  0.12    12     0.17     14     0.0  0.00   0.0   0.038   0.000   72.8    55   55.7   72.7  10.09  .0733    0.000   203    7    100.0   10 
 6/13/21  6:50a   59.3   59.5   59.3    98   58.7  10.0     N   1.67  15.0     S   56.2   59.8   56.7   55.3  29.864  0.01  0.12    21     0.30     26     0.0  0.00   0.0   0.040   0.000   72.8    55   55.7   72.7  10.09  .0733    0.000   200    7    100.0   10 
 6/13/21  7:00a   59.3   59.3   59.2    98   58.7   9.0     N   1.50  16.0     N   56.9   59.8   57.4   56.9  29.872  0.01  0.11    22     0.32     26     0.0  0.00   0.0   0.040   0.000   72.8    55   55.7   72.7  10.09  .0733    0.000   200    7    100.0   10 
 6/13/21  7:10a   59.1   59.3   59.1    98   58.5  10.0     N   1.67  16.0     N   55.9   59.6   56.4   55.5  29.872  0.00  0.00    16     0.23     19     0.0  0.00   0.0   0.041   0.000   72.8    55   55.7   72.7  10.09  .0733    0.000   202    7    100.0   10 
 6/13/21  7:20a   59.0   59.1   58.9    98   58.4   9.0     N   1.50  15.0     N   56.5   59.5   57.0   56.4  29.870  0.02  0.09    23     0.33     28     0.0  0.00   0.0   0.042   0.000   72.8    55   55.7   72.7  10.09  .0733    0.000   197    7     99.5   10 
 6/13/21  7:30a   58.9   59.0   58.9    98   58.3   8.0     N   1.33  14.0     N   57.2   59.4   57.7   57.2  29.871  0.00  0.05    27     0.39     33     0.0  0.00   0.0   0.042   0.000   72.9    55   55.8   72.9  10.09  .0733    0.000   202    7    100.0   10 
 6/13/21  7:40a   58.8   58.9   58.7    98   58.2   8.0     N   1.33  12.0     N   57.1   59.2   57.5   57.3  29.872  0.00  0.00    34     0.49     44     0.0  0.00   0.0   0.043   0.000   72.9    55   55.8   72.9  10.09  .0733    0.000   201    7    100.0   10 
 6/13/21  7:50a   58.7   58.8   58.6    98   58.1   8.0     N   1.33  13.0     N   56.9   59.1   57.3   57.6  29.871  0.01  0.00    47     0.67     51     0.0  0.00   0.0   0.044   0.000   72.9    55   55.8   72.9  10.09  .0733    0.000   203    7    100.0   10 
 6/13/21  8:00a   58.7   58.8   58.6    98   58.1   7.0     N   1.17  12.0     N   57.6   59.1   58.0   58.7  29.873  0.01  0.05    58     0.83     70     0.0  0.00   0.0   0.044   0.000   72.9    55   55.8   72.9  10.09  .0733    0.001   204    7    100.0   10 
 6/13/21  8:10a   58.7   58.7   58.6    98   58.1   8.0     N   1.33  13.0     N   56.9   59.1   57.3   57.9  29.877  0.01  0.05    60     0.86     79     0.0  0.00   0.0   0.044   0.000   73.0    55   55.9   73.0  10.09  .0733    0.000   203    7    100.0   10 
 6/13/21  8:20a   58.8   58.9   58.6    98   58.2   6.0     N   1.00  11.0     N   58.2   59.2   58.6   59.4  29.881  0.01  0.09    66     0.95     76     0.1  0.01   0.5   0.043   0.000   73.0    55   55.9   73.0  10.09  .0733    0.000   202    7    100.0   10 
 6/13/21  8:30a   58.9   59.0   58.8    98   58.3   7.0   SSW   1.17  14.0     N   57.9   59.4   58.4   60.3  29.879  0.00  0.04    98     1.40    123     0.6  0.04   0.7   0.042   0.000   73.0    55   55.9   73.0  10.09  .0733    0.000   203    7    100.0   10 
 6/13/21  8:40a   58.8   59.0   58.8    98   58.2   7.0   SSW   1.17  11.0     N   57.8   59.2   58.2   60.4  29.878  0.02  0.07   109     1.56    121     0.7  0.05   0.8   0.043   0.000   73.1    55   56.0   73.1  10.09  .0733    0.000   204    7    100.0   10 
 6/13/21  8:50a   58.9   59.0   58.8    98   58.3   6.0   SSW   1.00   9.0     N   58.3   59.4   58.8   61.9  29.879  0.01  0.07   141     2.02    149     0.8  0.06   0.9   0.042   0.000   73.1    55   56.0   73.1  10.09  .0733    0.000   200    7    100.0   10 
 6/13/21  9:00a   59.0   59.0   58.9    98   58.4   7.0     N   1.17  10.0     N   58.0   59.5   58.5   60.1  29.880  0.01  0.07   101     1.45    121     0.7  0.05   0.8   0.042   0.000   73.1    55   56.0   73.1  10.09  .0733    0.002   201    7    100.0   10 
 6/13/21  9:10a   59.1   59.1   58.9    98   58.5   5.0   SSW   0.83   8.0     N   58.9   59.6   59.4   61.7  29.879  0.01  0.08   124     1.78    132     0.9  0.06   0.9   0.041   0.000   73.1    55   56.0   73.1  10.09  .0733    0.000   202    7    100.0   10 
 6/13/21  9:20a   59.2   59.2   59.0    98   58.6   5.0   SSW   0.83   8.0     N   59.0   59.7   59.5   61.1  29.877  0.01  0.10   107     1.53    123     0.8  0.06   0.9   0.040   0.000   73.2    55   56.1   73.2  10.09  .0732    0.000   202    7    100.0   10 
 6/13/21  9:30a   59.3   59.4   59.2    98   58.7   5.0   SSW   0.83   9.0     N   59.2   59.8   59.7   61.8  29.875  0.01  0.06   127     1.82    137     1.0  0.07   1.1   0.040   0.000   73.2    55   56.1   73.2  10.09  .0732    0.000   202    7    100.0   10 
 6/13/21  9:40a   59.3   59.4   59.3    98   58.7   7.0   SSW   1.17  10.0   SSE   58.4   59.8   58.9   60.7  29.876  0.01  0.08   121     1.73    149     1.0  0.07   1.2   0.040   0.000   73.3    55   56.2   73.4  10.08  .0732    0.000   204    7    100.0   10 
 6/13/21  9:50a   59.0   59.3   59.0    98   58.4   9.0     N   1.50  12.0     N   56.5   59.5   57.0   57.8  29.875  0.00  0.00    94     1.35    113     0.8  0.06   1.0   0.042   0.000   73.2    55   56.1   73.2  10.09  .0732    0.000   204    7    100.0   10 
 6/13/21 10:00a   59.0   59.1   58.9    98   58.4   8.0     N   1.33  11.0     N   57.3   59.5   57.8   59.8  29.875  0.02  0.08   137     1.96    158     1.2  0.09   1.3   0.042   0.000   73.2    55   56.1   73.2  10.09  .0732    0.002   201    7    100.0   10 
 6/13/21 10:10a   58.9   58.9   58.8    98   58.3   9.0     N   1.50  12.0     N   56.4   59.4   56.9   57.6  29.877  0.00  0.05    94     1.35    113     0.9  0.06   1.1   0.042   0.000   73.3    55   56.2   73.4  10.08  .0732    0.000   198    7    100.0   10 
 6/13/21 10:20a   58.8   58.9   58.8    98   58.2   7.0     N   1.17  12.0     N   57.8   59.2   58.2   59.8  29.877  0.01  0.05   123     1.76    137     1.2  0.09   1.3   0.043   0.000   73.3    55   56.2   73.4  10.08  .0732    0.000   203    7    100.0   10 
 6/13/21 10:30a   58.9   59.0   58.8    98   58.3   7.0   SSW   1.17  10.0     N   57.9   59.4   58.4   60.2  29.875  0.01  0.09   135     1.94    139     1.3  0.09   1.3   0.042   0.000   73.3    55   56.2   73.4  10.08  .0732    0.000   199    7    100.0   10 
 6/13/21 10:40a   59.2   59.2   58.9    98   58.6   8.0     N   1.33  12.0     N   57.5   59.7   58.0   59.4  29.876  0.02  0.10   127     1.82    130     1.2  0.09   1.2   0.040   0.000   73.4    55   56.2   73.5  10.08  .0732    0.000   202    7    100.0   10 
 6/13/21 10:50a   59.2   59.3   59.2    98   58.6   7.0     N   1.17  11.0     N   58.2   59.7   58.7   59.9  29.875  0.01  0.10   114     1.63    121     1.1  0.08   1.2   0.040   0.000   73.4    55   56.2   73.5  10.08  .0732    0.000   202    7    100.0   10 
 6/13/21 11:00a   59.1   59.3   59.1    98   58.5   8.0     N   1.33  11.0     N   57.4   59.6   57.9   59.3  29.880  0.02  0.11   128     1.83    137     1.3  0.09   1.4   0.041   0.000   73.4    55   56.2   73.5  10.08  .0732    0.003   201    7    100.0   10 
 6/13/21 11:10a   58.9   59.2   58.9    98   58.3   8.0     N   1.33  13.0     N   57.2   59.4   57.7   59.1  29.885  0.02  0.14   131     1.88    141     1.3  0.09   1.4   0.042   0.000   73.5    55   56.3   73.6  10.08  .0732    0.000   204    7    100.0   10 
 6/13/21 11:20a   59.0   59.0   58.8    98   58.4   7.0     N   1.17  11.0     N   58.0   59.5   58.5   60.3  29.885  0.02  0.20   144     2.06    162     1.5  0.11   1.6   0.042   0.000   73.5    55   56.3   73.6  10.08  .0732    0.000   204    7    100.0   10 
 6/13/21 11:30a   59.0   59.1   58.9    98   58.4   7.0   SSW   1.17  11.0     N   58.0   59.5   58.5   61.4  29.882  0.01  0.13   190     2.72    250     1.9  0.14   2.4   0.042   0.000   73.6    55   56.4   73.7  10.08  .0732    0.000   204    7    100.0   10 
 6/13/21 11:40a   59.1   59.2   59.0    99   58.8   6.0   SSW   1.00   9.0   SSW   58.5   59.6   59.0   62.3  29.885  0.01  0.10   206     2.95    244     2.1  0.15   2.4   0.041   0.000   73.6    55   56.4   73.7  10.08  .0732    0.000   202    7    100.0   10 
 6/13/21 11:50a   58.9   59.2   58.8    98   58.3   7.0     N   1.17  10.0     N   57.9   59.4   58.4   60.6  29.890  0.01  0.06   161     2.31    183     1.8  0.13   2.0   0.042   0.000   73.7    55   56.5   73.8  10.08  .0732    0.000   202    7    100.0   10 
 6/13/21 12:00p   58.7   58.9   58.7    98   58.1   9.0     N   1.50  13.0     N   56.1   59.1   56.5   58.8  29.894  0.03  0.24   174     2.49    206     1.9  0.14   2.1   0.044   0.000   73.7    55   56.5   73.8  10.08  .0732    0.003   204    7    100.0   10 
 6/13/21 12:10p   58.6   58.8   58.6    98   58.0  10.0     N   1.67  15.0     N   55.3   59.0   55.7   58.1  29.899  0.02  0.29   186     2.67    200     2.1  0.15   2.2   0.044   0.000   73.8    55   56.6   74.0  10.07  .0732    0.000   204    7    100.0   10 
 6/13/21 12:20p   58.6   58.7   58.6    99   58.3  10.0     N   1.67  14.0     N   55.3   59.0   55.7   57.7  29.902  0.02  0.11   170     2.44    179     1.9  0.14   2.0   0.044   0.000   73.8    55   56.6   74.0  10.07  .0732    0.000   200    7    100.0   10 
 6/13/21 12:30p   58.7   58.8   58.6    99   58.4   7.0     N   1.17  12.0     N   57.6   59.2   58.1   61.1  29.903  0.02  0.28   195     2.80    260     2.2  0.16   2.9   0.044   0.000   73.8    55   56.6   74.0  10.07  .0732    0.000   200    7    100.0   10 
 6/13/21 12:40p   59.0   59.1   58.7    98   58.4   5.0     S   0.83   9.0     N   58.8   59.5   59.3   63.3  29.898  0.01  0.17   242     3.47    278     2.7  0.19   3.0   0.042   0.000   73.8    55   56.6   74.0  10.07  .0732    0.000   204    7    100.0   10 
 6/13/21 12:50p   59.1   59.1   59.0    99   58.8   2.0     S   0.33   5.0     S   59.1   59.6   59.6   61.9  29.895  0.01  0.08   169     2.42    192     1.9  0.14   2.2   0.041   0.000   73.8    55   56.6   74.0  10.07  .0732    0.000   200    7    100.0   10 
 6/13/21  1:00p   59.2   59.2   59.1    99   58.9   1.0     S   0.17   3.0    SW   59.2   59.7   59.7   61.5  29.894  0.01  0.09   149     2.14    153     1.7  0.12   1.8   0.040   0.000   73.8    55   56.6   74.0  10.07  .0732    0.004   203    7    100.0   10 
 6/13/21  1:10p   58.7   59.2   58.7    98   58.1   4.0     N   0.67   9.0     N   58.7   59.1   59.1   60.4  29.902  0.00  0.00   127     1.82    137     1.5  0.11   1.6   0.044   0.000   73.8    55   56.6   74.0  10.07  .0732    0.000   204    7    100.0   10 
 6/13/21  1:20p   58.6   58.7   58.5    98   58.0   4.0     S   0.67   9.0     N   58.6   59.0   59.0   60.3  29.894  0.02  0.09   128     1.83    141     1.5  0.11   1.6   0.044   0.000   73.8    55   56.6   74.0  10.07  .0732    0.000   202    7    100.0   10 
 6/13/21  1:30p   58.8   58.8   58.5    99   58.5   1.0     S   0.17   4.0   SSW   58.8   59.3   59.3   60.5  29.895  0.01  0.09   125     1.79    139     1.4  0.10   1.5   0.043   0.000   73.8    55   56.6   74.0  10.07  .0732    0.000   199    7    100.0   10 
 6/13/21  1:40p   58.4   58.8   58.4    98   57.8   6.0     N   1.00  10.0     S   57.7   58.8   58.1   59.8  29.897  0.01  0.09   146     2.09    178     1.5  0.11   1.9   0.046   0.000   73.9    55   56.7   74.1  10.07  .0732    0.000   203    7    100.0   10 
 6/13/21  1:50p   58.0   58.4   58.0    98   57.4   7.0     N   1.17  11.0     N   56.8   58.4   57.2   59.6  29.903  0.00  0.04   173     2.48    199     1.9  0.14   2.1   0.049   0.000   73.9    55   56.7   74.1  10.07  .0732    0.000   200    7    100.0   10 
Email: AdamSPAM@StormwatchersRetreat.com (To send me email remove the word 'SPAM' from my email address.)